LGHI/JKH METAR and TAF weather

Enter ICAO airport designator
Station Type Date Time Source
LGHI METAR 2018/12/16 19:50 UTC NOAA

LGHI 161950Z 00000KT 9999 FEW018CB SCT020 11/09 Q1011


Station Type Date Time Source
LGHI Decoded METAR 2018/12/16 19:50 UTC NOAA

Chios Airport , Greece (LGHI) 38-20N 026-08E 4M
Dec 16, 2018 - 02:50 PM EST / 2018.12.16 1950 UTC
Wind: Calm:0
Visibility: greater than 7 mile(s):0
Sky conditions: partly cloudy
Weather: Cumulonimbus clouds observed
Temperature: 51 F (11 C)
Dew Point: 48 F (9 C)
Relative Humidity: 87%
Pressure (altimeter): 29.85 in. Hg (1011 hPa)
ob: LGHI 161950Z 00000KT 9999 FEW018CB SCT020 11/09 Q1011
cycle: 20

Station Type Date Time Source
LGHI TAF 2012/09/21 03:06 UTC NOAA

TAF TAF LGHI 210200Z 2103/2115 VRB05KT 9999 SCT020 PROB30
TEMPO 2103/2106 7000 RA SCT018 BKN030
BECMG 2103/2105 30018KT


Example: see airport list